Marshall, Michigan
Current Conditions -  °F | °C
As of 4:14 AM on Friday 19 Dec 2014 (Local Time) from KRMY Reporting Station
Haze Haze  
Wind Chill: 27°   Ceiling: 600
Heat Index: 27°   Visibility: 4mi
Dew Point: 26°   Wind: 3mph
Humidity: 95%   Direction: 250°WSW
Pressure: 30.2"   Gusts: NA
Location:  42.28°N, 84.96°W
Report Text: KRMY 190914Z AUTO 25003KT 4SM BR OVC006 M03/M03 A3020 RMK AO2 T10281035
Loading
Personal Weather Stations






























Interactive Weather Map New forecast layout! Learn more

10-Day Weather Forecast

Advertisements
Track Severe Weather on mobile